Timeline UpdatesTrip UpdatesNews PostsPvt PostsTravel TipsAdmin PostsConv PostsFollowed PostsChat RequestsBlog PostsPNR Posts

Disclaimer
Search
 
 
Thu Oct 2, 2014 13:59:26 ISTHomeTrainsΣChainsAtlasPNRForumGalleryNewsFAQTripsMembersLoginFeedback
No Recent News for this Train
Other Trains in the News **new
Latest...
.
Fri Jun 20, 2014 (04:04PM)
⇐ Return Journey: Train# 12522

12521/Rapti Sagar SF Express

NO Time-Table Change.
Sep 01 2014 (9:44PM)
Change Departure Station:
Change Arrival Station:
Post a Train Travel TipPost a Train Travel Tip **new
Post a Comment/Question/Picture/VideoPost a Comment/Question/Picture/Video
Pantry/Catering
✓ Pantry Car Avbl
✓ Catering Avbl
Loco/Rake Reversals
SRR/Shoranur Junction (7); LJN/Lucknow Junction NER (6); MAS/Chennai Central (11);
RSA - Rake Sharing
NO RSA.
Rake/Coach Composition
LOCO-SLR-GS-A1-B1-B2-B3-PC-S1-S2-S3-S4-S5-S6-S7-S8-S9-S10-S11-S12-S13-S14-GS-GS-SLR
Loco
Loco Link: BJU to JHS - GD WDM 3A JHS to MAS...
Read more...
- ET WAP 4 MAS to ERS - AJJ WAM 4
News    PNR    Forum    Time-Table    Availability    Fare Chart    Map    Arr/Dep History    Trips    Gallery    ΣChains    X/O    Timeline    
Travel Time: 4h 55m    2 halts    Distance: 334 km    Avg Speed: 67 km/hr
Type: SuperFast
Zone: ECR/East Central
Departs @ 23:45 (Avg 2h 16m late)
Platform# 8
   W   
Chennai Central/MAS 
Arrives @ 04:40 +1 night (Avg 2h 8m late)
Platform# ???
    T  
Salem Junction/SA 

2 halts. 71 intermediate Stations between Chennai Central and Salem Junction

Show ALL intermediate Stations  

#CodeStation NameX/OArrivesAvgDepartsAvgHaltPFDay#KmSpeedElevZoneAddress
1BJUBarauni Junction (9)  -23:00+251-2735.35949mECRBegusarai, Bihar
2SPJSamastipur Junction (9)  23:51+1723:56+175m--1-2684.76455mECRSamastipur, Bihar
3MFPMuzaffarpur Junction (6)  00:45+3400:50+355m42-2632.66757mECRMuzaffarpur, Bihar
4HJPHajipur Junction (3)  01:38+1:0401:39+1:111m22-2578.83355mECR06224-272230, Bihar
5SEESonpur Junction (4)X  01:49+1:1301:52+1:153m--2-2573.34856mECRSaran, Bihar
6CPRChhapra Junction (6)  03:00+1:2703:05+1:275m--2-2519.28258mNERDistt: Saran, Bihar
7SVSiwan Junction (4)X  03:50+1:3603:55+1:365m--2-2458.08470mNERSiwan, Bihar
8BTTBhatni Junction (5)  04:30+1:4304:35+1:425m--2-2409.36673mNERDeoria, Uttar Pradesh
9DEOSDeoria Sadar (3)  04:54+1:4304:55+1:461m--2-2388.53579mNERDeoria- 274001, Uttar Pradesh
10GKPGorakhpur Junction (10)X  06:20+1:3406:35+1:3515m92-2339.45284mNERGorakhpur 273001, Uttar Pradesh
11KLDKhalilabad (3)  07:14+1:3807:15+1:391m32-2305.57186mNERKhalilabad- 272175, Uttar Pradesh
12BSTBasti (4)X  07:40+1:4107:45+1:415m12-2275.98190mNERBasti 272001, Uttar Pradesh
13MURMankapur Junction (5)  08:30+1:3908:32+1:392m12-2215.460104mNERDistrict Gonda, Uttar Pradesh
14GDGonda Junction (3)  09:00+1:4009:05+1:415m12-2187.565110mNERGonda 271001, Uttar Pradesh
15BBKBarabanki Junction (4)  10:27+1:5110:29+1:512m12-2098.253122mNRPin-225001, Uttar Pradesh
16BNZBadshahnagar (2)  10:57+1:5410:58+1:551m12-2073.621116mNERLucknow, Uttar Pradesh
17LJNLucknow Junction NER (6)X11:30+1:3711:50+1:3520m12-2062.663126mNERLucknow, Uttar Pradesh
18ONUnnao Junction (5)X  12:41+2:0212:42+2:031m52-2008.730129mNRUnnao, Uttar Pradesh
19CNBKanpur Central (10)  13:17+2:0813:22+2:155m52-1991.363128mNCRKANPUR-208 001, Uttar Pradesh
20PHNPokhrayan (2)  14:18+2:3814:19+2:391m12-1932.864133mNCRPukhrayan, Uttar Pradesh
21ORAIOrai (3)  15:04+2:3815:05+2:421m--2-1885.070139mNCROrai(05162-252206), Uttar Pradesh
22JHSJhansi Junction (7)16:43+2:5116:55+3:1112m--2-1771.086259mNCRJhansi, Uttar Pradesh
23LARLalitpur (3)  17:58+3:1317:59+3:161m12-1680.762373mNCRLalitpur, Uttar Pradesh
24BPLBhopal Junction (6)X  21:15+3:1821:20+3:205m12-1479.255497mWCRBhopal, Madhya Pradesh
25ETItarsi Junction (7)  23:00+2:5723:05+3:025m--2-1387.567329mWCRItarsi 461111, Madhya Pradesh
26GDYAGhoradongri (3)  00:08+3:3400:09+3:361m--3-1317.148 CRBetul, Madhya Pradesh
27BZUBetul (3)X  00:54+3:4600:55+3:481m--3-1281.257644mCRBetul, Madhya Pradesh
28AMLAAmla Junction (5)X  01:19+3:5001:22+3:493m--3-1258.368733mCRAmla Distt. Betul, Madhya Pradesh
29PARPandhurna (2)  02:18+3:5802:19+3:591m--3-1194.769481mCRDistt: Chhindwara, Madhya Pradesh
30NGPNagpur Junction (8)  03:50+3:5004:00+3:5210m23-1090.378314mCRNagpur 440001, Maharashtra
31SEGMSewagram Junction (5)  04:59+4:0705:00+4:081m--3-1014.151279mCRWardha, Maharashtra
32HGTHinganghat (3)  05:39+3:5805:40+3:581m--3-981.067228mCRHinganghat, Maharashtra
33CDChandrapur Maharashtra (3)X  06:57+3:5006:58+3:501m--3-895.612194mCRChandrapur 442401, Maharashtra
34BPQBalharshah Junction (5)XO  08:05+3:0508:35+2:4730m--3-881.884188mCRBallarpur. Ph : 07172 - 240341, Maharashtra
35SKZRSirpur Kaghaznagar (3)  09:25+2:5809:26+2:581m23-812.062181mSCRAdilabad Dist., Telangana
36BPABellampalli (3)  10:03+2:5710:04+2:571m23-773.679205mSCRTel:.08735 223298, Telangana
37MCIManchiryal (3)  10:19+3:0310:20+3:031m23-753.792159mSCRAdilabad Dist., Telangana
38RDMRamagundam (3)X  10:29+3:2010:30+3:211m23-740.065170mSCRKarimnagar Dist. Ph : 08728 - 255237, Telangana
39WLWarangal (3)  12:03+3:2612:05+3:272m13-638.871271mSCRWarangal., Telangana
40KMTKhammam (2)  13:36+2:3813:37+2:391m13-531.245118mSCRKhammam 507001, Telangana
41BZAVijayawada Junction (10)X  15:50+2:3816:05+2:3615m73-430.97324mSCRVijayawada 520001, Andhra Pradesh
42CLXChirala (4)O  17:18+3:0417:19+3:051m--3-341.9678mSCRChirala, Andhra Pradesh
43OGLOngole (3)XO  18:03+2:4918:04+2:521m33-292.69312mSCROngole, Andhra Pradesh
44NLRNellore (4)O  19:19+1:0319:20+1:031m33-175.82521mSCRNellore, Andhra Pradesh
45GDRGudur Junction (3)  20:53+2:1520:55+2:152m13-137.45719mSCRGudur, Andhra Pradesh
46MASChennai Central (11)»X23:20+2:1423:45+2:1625m830.0659mSRChennai 600003, Tamil Nadu
47KPDKatpadi Junction (5)X  01:45+2:3301:50+2:305m14129.465213mSRVellore 632007, Tamil Nadu
48JTJJolarpettai Junction (5)  03:08+2:1403:10+2:142m--4213.380405mSRJolarpettai, Tamil Nadu
49SASalem Junction (6)•X  04:40+2:0804:45+2:075m--4333.549283mSRSalem, Tamil Nadu
50EDErode Junction (4)  06:00+2:3206:10+2:4410m24394.979175mSRErode ph.no: 0424-2256111, Tamil Nadu
51TUPTiruppur (2)X  06:48+2:4506:50+2:452m14445.167305mSRTiruppur. Ph:0421-2200450, Tamil Nadu
52CBECoimbatore Main Junction (6)  07:35+1:5807:40+1:585m14495.641416mSRCoimbatore 641001, Tamil Nadu
53PGTPalakkad Junction (4)XO  09:00+1:5209:05+1:535m--4550.910084mSRPalghat Tel: 0491 2555231, Kerala
54OTPOttappalam (2)  09:24+1:1509:25+1:151m--4582.61730mSROttapalam, Kerala
55SRRShoranur Junction (7)10:10+1:4610:20+1:5910m54595.54726mSRShoranur ph.no 0466-2222913, Kerala
56WKIWadakkanchery (2)X  10:41+1:5310:42+1:531m14612.05540mSRWadackanchery, Kerala
57TCRThrissur (4)  11:00+2:0411:03+2:043m14628.4686mSRThrissur Tel: 0487 2423150, Kerala
58IJKIrinjalakkuda (2)  11:24+1:2711:25+1:271m--4652.25518mSRKalletumkara, Kerala
59CKIChalakkudy (3)X  11:32+2:0611:33+2:061m14658.6659mSRPh: 0480- 2701368, Kerala
60AFKAngamaly for Kalady (3)  11:47+2:1211:48+2:121m--4673.84616mSRPhone: 0484-2452340, Kerala
61AWYAluva (3)X  12:00+1:5712:02+1:572m14683.03612mSRPh: 0484-2624141, Kerala
62ERNErnakulam Town (North) (2)  12:30+2:0912:32+2:102m24699.969mSRTel: 0484 2395198, Kerala
63ERSErnakulam Junction (South) (6)  13:00+2:03---4702.4-3mSRErnakulam 682016, Kerala
Scroll to Top
Scroll to Bottom